Van Tassell, WY (82242)

9:10 AM MDT on July 25, 2016 (GMT -0600)
Dunn Ranch Northwest of Harrison | | Change Station

Elev 5138 ft 42.77 °N, 104.00 °W | Updated 4 minutes ago

Clear
Clear
67.4 °F
Feels Like 67.4 °F
N
11.0
Wind Variable Wind from SSE

Today
High -- | Low -- °F
--% Chance of Precip.
Yesterday
High -- | Low -- °F
Precip. -- in
Pressure 30.01 in
Visibility 10.0 miles
Clouds Clear
Dew Point 55 °F
Humidity 65%
Rainfall 0.00 in
Snow Depth Not available.
5:41 AM 8:23 PM
Waning Gibbous, 65% visible
METAR KTOR 251453Z AUTO 13011KT 10SM CLR 22/13 A3014 RMK AO2 SLP160 T02170133 50003 TSNO
Pressure 30.01 in
Visibility 10.0 miles
Clouds Clear
Dew Point 55 °F
Humidity 65%
Rainfall 0.00 in
Snow Depth Not available.
5:41 AM 8:23 PM
Waning Gibbous, 65% visible
METAR KTOR 251453Z AUTO 13011KT 10SM CLR 22/13 A3014 RMK AO2 SLP160 T02170133 50003 TSNO

10-Day Weather Forecast

Almanac

Astronomy

Jul. 25, 2016 Rise Set
Actual Time
Civil Twilight
Nautical Twilight
Astronomical Twilight
Moon
Length of Visible Light
Length of Day
Tomorrow will be .
, % of the Moon is Illuminated

Today's Extremes

State Highs State Lows

Community

WunderPhotos

Upload Photos

1,927,308 photos uploaded!

WunderBlog® & News

Nearby

Air Quality

  Air Quality AQ Index Pollutant
Not available.

Snow Depth

Station Depth Elevation

Earthquake Activity

City Distance Mag. Time & Date
Minimum magnitude displayed is 2.5.

Coastal Water Temperatures

Place Temperature

Stations

Nearby Weather Stations

Station Location Temp. Windchill Dew Point Humidity Wind Precip. Elev Updated Type
                   

Watches & Warnings

There are currently no watches in effect.